sensor_id;sensor_type;location;lat;lon;timestamp;P1;durP1;ratioP1;P2;durP2;ratioP2
64938;SDS011;51453;47.738;7.420;2023-02-25T00:00:03;48.90;;;14.57;;
64938;SDS011;51453;47.738;7.420;2023-02-25T00:02:45;44.83;;;15.80;;
64938;SDS011;51453;47.738;7.420;2023-02-25T00:05:12;48.65;;;17.38;;
64938;SDS011;51453;47.738;7.420;2023-02-25T00:07:38;74.95;;;16.88;;
64938;SDS011;51453;47.738;7.420;2023-02-25T00:10:04;58.58;;;17.23;;
64938;SDS011;51453;47.738;7.420;2023-02-25T00:12:31;53.50;;;15.40;;
64938;SDS011;51453;47.738;7.420;2023-02-25T00:14:57;47.75;;;15.50;;
64938;SDS011;51453;47.738;7.420;2023-02-25T00:17:26;50.55;;;14.85;;
64938;SDS011;51453;47.738;7.420;2023-02-25T00:19:51;39.28;;;14.40;;
64938;SDS011;51453;47.738;7.420;2023-02-25T00:22:19;52.50;;;15.18;;
64938;SDS011;51453;47.738;7.420;2023-02-25T00:24:44;64.90;;;17.52;;
64938;SDS011;51453;47.738;7.420;2023-02-25T00:27:10;57.15;;;16.50;;
64938;SDS011;51453;47.738;7.420;2023-02-25T00:29:35;54.58;;;16.20;;
64938;SDS011;51453;47.738;7.420;2023-02-25T00:32:01;62.65;;;16.75;;
64938;SDS011;51453;47.738;7.420;2023-02-25T00:34:27;49.05;;;16.15;;
64938;SDS011;51453;47.738;7.420;2023-02-25T00:36:52;49.95;;;16.73;;
64938;SDS011;51453;47.738;7.420;2023-02-25T00:39:18;65.28;;;17.35;;
64938;SDS011;51453;47.738;7.420;2023-02-25T00:41:44;75.72;;;18.92;;
64938;SDS011;51453;47.738;7.420;2023-02-25T00:44:09;76.80;;;18.55;;
64938;SDS011;51453;47.738;7.420;2023-02-25T00:46:37;81.47;;;19.83;;
64938;SDS011;51453;47.738;7.420;2023-02-25T00:49:02;65.30;;;18.95;;
64938;SDS011;51453;47.738;7.420;2023-02-25T00:51:29;60.25;;;16.98;;
64938;SDS011;51453;47.738;7.420;2023-02-25T00:53:56;65.75;;;17.85;;
64938;SDS011;51453;47.738;7.420;2023-02-25T00:56:24;47.70;;;17.02;;
64938;SDS011;51453;47.738;7.420;2023-02-25T00:58:50;44.95;;;16.35;;
64938;SDS011;51453;47.738;7.420;2023-02-25T01:01:27;75.95;;;20.17;;
64938;SDS011;51453;47.738;7.420;2023-02-25T01:03:55;57.80;;;18.17;;
64938;SDS011;51453;47.738;7.420;2023-02-25T01:06:21;58.13;;;18.90;;
64938;SDS011;51453;47.738;7.420;2023-02-25T01:08:48;69.95;;;20.05;;
64938;SDS011;51453;47.738;7.420;2023-02-25T01:11:35;52.25;;;19.10;;
64938;SDS011;51453;47.738;7.420;2023-02-25T01:14:04;57.00;;;18.65;;
64938;SDS011;51453;47.738;7.420;2023-02-25T01:16:52;52.47;;;17.67;;
64938;SDS011;51453;47.738;7.420;2023-02-25T01:19:21;56.58;;;18.02;;
64938;SDS011;51453;47.738;7.420;2023-02-25T01:21:49;51.28;;;18.27;;
64938;SDS011;51453;47.738;7.420;2023-02-25T01:24:24;39.88;;;15.95;;
64938;SDS011;51453;47.738;7.420;2023-02-25T01:26:52;54.95;;;18.45;;
64938;SDS011;51453;47.738;7.420;2023-02-25T01:29:21;67.45;;;19.85;;
64938;SDS011;51453;47.738;7.420;2023-02-25T01:31:52;74.85;;;20.13;;
64938;SDS011;51453;47.738;7.420;2023-02-25T01:34:18;58.33;;;18.52;;
64938;SDS011;51453;47.738;7.420;2023-02-25T01:36:44;69.82;;;19.83;;
64938;SDS011;51453;47.738;7.420;2023-02-25T01:39:11;48.00;;;17.67;;
64938;SDS011;51453;47.738;7.420;2023-02-25T01:41:38;53.10;;;17.77;;
64938;SDS011;51453;47.738;7.420;2023-02-25T01:44:14;39.65;;;16.67;;
64938;SDS011;51453;47.738;7.420;2023-02-25T01:46:43;40.47;;;16.77;;
64938;SDS011;51453;47.738;7.420;2023-02-25T01:49:12;41.38;;;16.70;;
64938;SDS011;51453;47.738;7.420;2023-02-25T01:51:46;48.10;;;17.95;;
64938;SDS011;51453;47.738;7.420;2023-02-25T01:54:15;60.67;;;18.27;;
64938;SDS011;51453;47.738;7.420;2023-02-25T01:56:41;64.22;;;18.10;;
64938;SDS011;51453;47.738;7.420;2023-02-25T01:59:09;62.45;;;18.88;;
64938;SDS011;51453;47.738;7.420;2023-02-25T02:01:36;54.45;;;17.92;;
64938;SDS011;51453;47.738;7.420;2023-02-25T02:04:03;58.58;;;17.65;;
64938;SDS011;51453;47.738;7.420;2023-02-25T02:09:03;62.90;;;18.67;;
64938;SDS011;51453;47.738;7.420;2023-02-25T02:11:31;63.83;;;17.80;;
64938;SDS011;51453;47.738;7.420;2023-02-25T02:13:57;54.78;;;18.48;;
64938;SDS011;51453;47.738;7.420;2023-02-25T02:22:29;79.93;;;22.50;;
64938;SDS011;51453;47.738;7.420;2023-02-25T02:28:25;91.60;;;24.08;;
64938;SDS011;51453;47.738;7.420;2023-02-25T02:33:32;57.95;;;20.77;;
64938;SDS011;51453;47.738;7.420;2023-02-25T02:41:46;46.15;;;18.38;;
64938;SDS011;51453;47.738;7.420;2023-02-25T02:47:08;58.80;;;20.67;;
64938;SDS011;51453;47.738;7.420;2023-02-25T02:49:39;53.67;;;20.33;;
64938;SDS011;51453;47.738;7.420;2023-02-25T02:52:14;55.80;;;20.70;;
64938;SDS011;51453;47.738;7.420;2023-02-25T02:54:47;46.47;;;19.63;;
64938;SDS011;51453;47.738;7.420;2023-02-25T02:57:17;45.92;;;20.02;;
64938;SDS011;51453;47.738;7.420;2023-02-25T02:59:47;43.20;;;18.60;;
64938;SDS011;51453;47.738;7.420;2023-02-25T03:02:20;39.60;;;17.85;;
64938;SDS011;51453;47.738;7.420;2023-02-25T03:04:51;41.78;;;17.77;;
64938;SDS011;51453;47.738;7.420;2023-02-25T03:07:19;35.95;;;18.05;;
64938;SDS011;51453;47.738;7.420;2023-02-25T03:09:57;38.97;;;17.85;;
64938;SDS011;51453;47.738;7.420;2023-02-25T03:12:25;33.25;;;16.20;;
64938;SDS011;51453;47.738;7.420;2023-02-25T03:14:50;36.45;;;17.88;;
64938;SDS011;51453;47.738;7.420;2023-02-25T03:17:24;32.40;;;15.90;;
64938;SDS011;51453;47.738;7.420;2023-02-25T03:19:59;35.13;;;16.67;;
64938;SDS011;51453;47.738;7.420;2023-02-25T03:22:38;27.63;;;14.20;;
64938;SDS011;51453;47.738;7.420;2023-02-25T03:25:21;28.08;;;14.32;;
64938;SDS011;51453;47.738;7.420;2023-02-25T03:28:25;24.02;;;12.98;;
64938;SDS011;51453;47.738;7.420;2023-02-25T03:31:05;26.35;;;13.38;;
64938;SDS011;51453;47.738;7.420;2023-02-25T03:36:02;28.95;;;13.18;;
64938;SDS011;51453;47.738;7.420;2023-02-25T03:38:33;26.83;;;13.00;;
64938;SDS011;51453;47.738;7.420;2023-02-25T03:43:40;28.63;;;13.23;;
64938;SDS011;51453;47.738;7.420;2023-02-25T03:46:09;21.45;;;11.40;;
64938;SDS011;51453;47.738;7.420;2023-02-25T03:48:38;23.70;;;13.13;;
64938;SDS011;51453;47.738;7.420;2023-02-25T03:51:05;25.13;;;13.35;;
64938;SDS011;51453;47.738;7.420;2023-02-25T03:53:31;26.77;;;12.60;;
64938;SDS011;51453;47.738;7.420;2023-02-25T03:56:01;28.05;;;12.65;;
64938;SDS011;51453;47.738;7.420;2023-02-25T03:58:36;24.60;;;12.48;;
64938;SDS011;51453;47.738;7.420;2023-02-25T04:01:07;19.42;;;11.00;;
64938;SDS011;51453;47.738;7.420;2023-02-25T04:03:40;19.27;;;10.40;;
64938;SDS011;51453;47.738;7.420;2023-02-25T04:06:06;17.98;;;9.68;;
64938;SDS011;51453;47.738;7.420;2023-02-25T04:08:31;18.73;;;9.75;;
64938;SDS011;51453;47.738;7.420;2023-02-25T04:10:57;18.50;;;9.35;;
64938;SDS011;51453;47.738;7.420;2023-02-25T04:13:22;17.60;;;9.68;;
64938;SDS011;51453;47.738;7.420;2023-02-25T04:15:48;16.95;;;8.85;;
64938;SDS011;51453;47.738;7.420;2023-02-25T04:18:15;16.63;;;8.75;;
64938;SDS011;51453;47.738;7.420;2023-02-25T04:20:41;17.45;;;8.75;;
64938;SDS011;51453;47.738;7.420;2023-02-25T04:23:08;18.42;;;9.20;;
64938;SDS011;51453;47.738;7.420;2023-02-25T04:25:37;16.43;;;9.07;;
64938;SDS011;51453;47.738;7.420;2023-02-25T04:28:03;13.40;;;8.35;;
64938;SDS011;51453;47.738;7.420;2023-02-25T04:30:29;20.85;;;9.50;;
64938;SDS011;51453;47.738;7.420;2023-02-25T04:32:54;19.15;;;8.85;;
64938;SDS011;51453;47.738;7.420;2023-02-25T04:35:20;16.90;;;8.52;;
64938;SDS011;51453;47.738;7.420;2023-02-25T04:37:45;18.58;;;9.05;;
64938;SDS011;51453;47.738;7.420;2023-02-25T04:40:12;15.57;;;9.05;;
64938;SDS011;51453;47.738;7.420;2023-02-25T04:42:41;13.55;;;8.15;;
64938;SDS011;51453;47.738;7.420;2023-02-25T04:45:07;19.65;;;8.70;;
64938;SDS011;51453;47.738;7.420;2023-02-25T04:47:34;16.42;;;8.60;;
64938;SDS011;51453;47.738;7.420;2023-02-25T04:50:00;14.30;;;8.50;;
64938;SDS011;51453;47.738;7.420;2023-02-25T04:52:26;15.57;;;8.27;;
64938;SDS011;51453;47.738;7.420;2023-02-25T04:54:52;18.00;;;7.65;;
64938;SDS011;51453;47.738;7.420;2023-02-25T04:57:17;16.83;;;8.43;;
64938;SDS011;51453;47.738;7.420;2023-02-25T04:59:43;14.55;;;7.93;;
64938;SDS011;51453;47.738;7.420;2023-02-25T05:02:09;16.83;;;7.32;;
64938;SDS011;51453;47.738;7.420;2023-02-25T05:04:35;14.88;;;7.35;;
64938;SDS011;51453;47.738;7.420;2023-02-25T05:07:02;13.95;;;7.32;;
64938;SDS011;51453;47.738;7.420;2023-02-25T05:09:28;14.23;;;7.55;;
64938;SDS011;51453;47.738;7.420;2023-02-25T05:11:54;11.45;;;6.85;;
64938;SDS011;51453;47.738;7.420;2023-02-25T05:14:19;17.15;;;7.10;;
64938;SDS011;51453;47.738;7.420;2023-02-25T05:16:45;16.45;;;7.43;;
64938;SDS011;51453;47.738;7.420;2023-02-25T05:19:18;14.52;;;7.55;;
64938;SDS011;51453;47.738;7.420;2023-02-25T05:21:49;14.13;;;7.28;;
64938;SDS011;51453;47.738;7.420;2023-02-25T05:24:16;15.30;;;7.25;;
64938;SDS011;51453;47.738;7.420;2023-02-25T05:26:47;12.68;;;7.10;;
64938;SDS011;51453;47.738;7.420;2023-02-25T05:29:13;16.83;;;7.55;;
64938;SDS011;51453;47.738;7.420;2023-02-25T05:31:38;18.15;;;7.75;;
64938;SDS011;51453;47.738;7.420;2023-02-25T05:34:04;16.30;;;7.53;;
64938;SDS011;51453;47.738;7.420;2023-02-25T05:36:30;15.20;;;8.20;;
64938;SDS011;51453;47.738;7.420;2023-02-25T05:38:56;15.07;;;8.15;;
64938;SDS011;51453;47.738;7.420;2023-02-25T05:41:27;15.43;;;8.52;;
64938;SDS011;51453;47.738;7.420;2023-02-25T05:43:53;13.85;;;7.72;;
64938;SDS011;51453;47.738;7.420;2023-02-25T05:46:19;14.60;;;8.10;;
64938;SDS011;51453;47.738;7.420;2023-02-25T05:48:44;14.43;;;8.45;;
64938;SDS011;51453;47.738;7.420;2023-02-25T05:51:11;12.77;;;7.70;;
64938;SDS011;51453;47.738;7.420;2023-02-25T05:53:39;16.17;;;8.65;;
64938;SDS011;51453;47.738;7.420;2023-02-25T05:56:06;16.88;;;9.13;;
64938;SDS011;51453;47.738;7.420;2023-02-25T05:58:35;16.42;;;9.30;;
64938;SDS011;51453;47.738;7.420;2023-02-25T06:01:11;19.38;;;8.63;;
64938;SDS011;51453;47.738;7.420;2023-02-25T06:03:39;22.02;;;9.32;;
64938;SDS011;51453;47.738;7.420;2023-02-25T06:06:06;15.55;;;9.27;;
64938;SDS011;51453;47.738;7.420;2023-02-25T06:08:34;18.80;;;9.32;;
64938;SDS011;51453;47.738;7.420;2023-02-25T06:11:00;19.38;;;8.60;;
64938;SDS011;51453;47.738;7.420;2023-02-25T06:13:26;18.20;;;8.75;;
64938;SDS011;51453;47.738;7.420;2023-02-25T06:15:52;18.08;;;9.48;;
64938;SDS011;51453;47.738;7.420;2023-02-25T06:18:18;21.48;;;9.40;;
64938;SDS011;51453;47.738;7.420;2023-02-25T06:20:44;16.40;;;9.05;;
64938;SDS011;51453;47.738;7.420;2023-02-25T06:23:10;18.65;;;8.88;;
64938;SDS011;51453;47.738;7.420;2023-02-25T06:25:36;19.05;;;9.10;;
64938;SDS011;51453;47.738;7.420;2023-02-25T06:28:02;15.60;;;8.63;;
64938;SDS011;51453;47.738;7.420;2023-02-25T06:30:28;14.75;;;8.20;;
64938;SDS011;51453;47.738;7.420;2023-02-25T06:32:55;12.50;;;7.85;;
64938;SDS011;51453;47.738;7.420;2023-02-25T06:35:21;17.38;;;8.98;;
64938;SDS011;51453;47.738;7.420;2023-02-25T06:37:53;18.73;;;8.63;;
64938;SDS011;51453;47.738;7.420;2023-02-25T06:40:21;18.02;;;7.75;;
64938;SDS011;51453;47.738;7.420;2023-02-25T06:42:47;17.33;;;8.00;;
64938;SDS011;51453;47.738;7.420;2023-02-25T06:45:13;15.98;;;8.18;;
64938;SDS011;51453;47.738;7.420;2023-02-25T06:47:39;12.43;;;7.00;;
64938;SDS011;51453;47.738;7.420;2023-02-25T06:50:05;15.90;;;7.80;;
64938;SDS011;51453;47.738;7.420;2023-02-25T06:52:31;13.85;;;7.07;;
64938;SDS011;51453;47.738;7.420;2023-02-25T06:54:57;13.82;;;7.05;;
64938;SDS011;51453;47.738;7.420;2023-02-25T06:57:23;14.88;;;6.65;;
64938;SDS011;51453;47.738;7.420;2023-02-25T06:59:48;16.48;;;6.30;;
64938;SDS011;51453;47.738;7.420;2023-02-25T07:02:14;14.77;;;7.22;;
64938;SDS011;51453;47.738;7.420;2023-02-25T07:04:40;16.13;;;6.13;;
64938;SDS011;51453;47.738;7.420;2023-02-25T07:07:06;14.57;;;6.80;;
64938;SDS011;51453;47.738;7.420;2023-02-25T07:09:31;12.82;;;6.38;;
64938;SDS011;51453;47.738;7.420;2023-02-25T07:11:57;11.45;;;5.60;;
64938;SDS011;51453;47.738;7.420;2023-02-25T07:14:25;11.60;;;6.38;;
64938;SDS011;51453;47.738;7.420;2023-02-25T07:16:51;14.00;;;5.93;;
64938;SDS011;51453;47.738;7.420;2023-02-25T07:19:16;12.82;;;6.43;;
64938;SDS011;51453;47.738;7.420;2023-02-25T07:21:42;14.68;;;6.85;;
64938;SDS011;51453;47.738;7.420;2023-02-25T07:24:09;15.60;;;7.32;;
64938;SDS011;51453;47.738;7.420;2023-02-25T07:26:36;15.27;;;6.75;;
64938;SDS011;51453;47.738;7.420;2023-02-25T07:29:02;17.02;;;7.50;;
64938;SDS011;51453;47.738;7.420;2023-02-25T07:31:29;13.13;;;6.93;;
64938;SDS011;51453;47.738;7.420;2023-02-25T07:33:55;14.27;;;7.05;;
64938;SDS011;51453;47.738;7.420;2023-02-25T07:36:21;15.68;;;7.22;;
64938;SDS011;51453;47.738;7.420;2023-02-25T07:38:47;13.23;;;7.03;;
64938;SDS011;51453;47.738;7.420;2023-02-25T07:41:17;13.65;;;7.30;;
64938;SDS011;51453;47.738;7.420;2023-02-25T07:43:43;13.23;;;6.88;;
64938;SDS011;51453;47.738;7.420;2023-02-25T07:46:09;12.93;;;7.20;;
64938;SDS011;51453;47.738;7.420;2023-02-25T07:48:37;13.82;;;6.57;;
64938;SDS011;51453;47.738;7.420;2023-02-25T07:51:06;14.38;;;7.15;;
64938;SDS011;51453;47.738;7.420;2023-02-25T07:53:51;18.13;;;7.32;;
64938;SDS011;51453;47.738;7.420;2023-02-25T07:56:19;15.13;;;6.90;;
64938;SDS011;51453;47.738;7.420;2023-02-25T07:58:46;11.00;;;6.75;;
64938;SDS011;51453;47.738;7.420;2023-02-25T08:01:19;12.23;;;6.18;;
64938;SDS011;51453;47.738;7.420;2023-02-25T08:03:48;12.00;;;6.03;;
64938;SDS011;51453;47.738;7.420;2023-02-25T08:06:15;12.52;;;6.85;;
64938;SDS011;51453;47.738;7.420;2023-02-25T08:08:41;14.32;;;6.68;;
64938;SDS011;51453;47.738;7.420;2023-02-25T08:11:08;10.15;;;5.95;;
64938;SDS011;51453;47.738;7.420;2023-02-25T08:13:36;9.70;;;6.00;;
64938;SDS011;51453;47.738;7.420;2023-02-25T08:16:05;10.73;;;5.93;;
64938;SDS011;51453;47.738;7.420;2023-02-25T08:18:33;11.13;;;5.45;;
64938;SDS011;51453;47.738;7.420;2023-02-25T08:20:59;10.80;;;5.05;;
64938;SDS011;51453;47.738;7.420;2023-02-25T08:23:25;12.48;;;5.63;;
64938;SDS011;51453;47.738;7.420;2023-02-25T08:25:54;11.27;;;5.75;;
64938;SDS011;51453;47.738;7.420;2023-02-25T08:28:21;10.50;;;5.35;;
64938;SDS011;51453;47.738;7.420;2023-02-25T08:30:48;9.77;;;5.22;;
64938;SDS011;51453;47.738;7.420;2023-02-25T08:33:15;13.18;;;5.97;;
64938;SDS011;51453;47.738;7.420;2023-02-25T08:35:42;10.07;;;5.60;;
64938;SDS011;51453;47.738;7.420;2023-02-25T08:38:07;10.50;;;5.53;;
64938;SDS011;51453;47.738;7.420;2023-02-25T08:40:34;9.25;;;4.55;;
64938;SDS011;51453;47.738;7.420;2023-02-25T08:42:59;9.02;;;4.50;;
64938;SDS011;51453;47.738;7.420;2023-02-25T08:45:25;10.30;;;5.00;;
64938;SDS011;51453;47.738;7.420;2023-02-25T08:47:51;6.80;;;3.88;;
64938;SDS011;51453;47.738;7.420;2023-02-25T08:50:17;8.68;;;4.20;;
64938;SDS011;51453;47.738;7.420;2023-02-25T08:52:43;7.13;;;3.78;;
64938;SDS011;51453;47.738;7.420;2023-02-25T08:55:10;9.48;;;4.03;;
64938;SDS011;51453;47.738;7.420;2023-02-25T08:57:39;6.93;;;3.00;;
64938;SDS011;51453;47.738;7.420;2023-02-25T09:00:05;7.97;;;2.85;;
64938;SDS011;51453;47.738;7.420;2023-02-25T09:02:33;7.93;;;2.70;;
64938;SDS011;51453;47.738;7.420;2023-02-25T09:04:59;7.05;;;2.47;;
64938;SDS011;51453;47.738;7.420;2023-02-25T09:07:25;4.53;;;2.17;;
64938;SDS011;51453;47.738;7.420;2023-02-25T09:09:51;4.65;;;2.65;;
64938;SDS011;51453;47.738;7.420;2023-02-25T09:12:16;5.43;;;2.60;;
64938;SDS011;51453;47.738;7.420;2023-02-25T09:14:42;6.43;;;2.67;;
64938;SDS011;51453;47.738;7.420;2023-02-25T09:17:08;6.05;;;3.13;;
64938;SDS011;51453;47.738;7.420;2023-02-25T09:19:34;10.48;;;3.40;;
64938;SDS011;51453;47.738;7.420;2023-02-25T09:22:03;6.15;;;2.72;;
64938;SDS011;51453;47.738;7.420;2023-02-25T09:24:30;5.55;;;2.75;;
64938;SDS011;51453;47.738;7.420;2023-02-25T09:26:57;6.55;;;2.58;;
64938;SDS011;51453;47.738;7.420;2023-02-25T09:29:25;9.07;;;2.70;;
64938;SDS011;51453;47.738;7.420;2023-02-25T09:31:52;8.73;;;3.20;;
64938;SDS011;51453;47.738;7.420;2023-02-25T09:34:18;6.22;;;3.13;;
64938;SDS011;51453;47.738;7.420;2023-02-25T09:36:44;6.05;;;3.00;;
64938;SDS011;51453;47.738;7.420;2023-02-25T09:39:10;7.65;;;3.00;;
64938;SDS011;51453;47.738;7.420;2023-02-25T09:41:45;5.82;;;2.95;;
64938;SDS011;51453;47.738;7.420;2023-02-25T09:44:18;4.88;;;3.15;;
64938;SDS011;51453;47.738;7.420;2023-02-25T09:46:48;5.65;;;2.97;;
64938;SDS011;51453;47.738;7.420;2023-02-25T09:49:39;7.65;;;2.72;;
64938;SDS011;51453;47.738;7.420;2023-02-25T09:54:57;4.65;;;1.90;;
64938;SDS011;51453;47.738;7.420;2023-02-25T09:57:40;5.35;;;2.15;;
64938;SDS011;51453;47.738;7.420;2023-02-25T10:00:18;4.35;;;2.00;;
64938;SDS011;51453;47.738;7.420;2023-02-25T10:02:49;6.97;;;2.30;;
64938;SDS011;51453;47.738;7.420;2023-02-25T10:05:32;7.47;;;2.50;;
64938;SDS011;51453;47.738;7.420;2023-02-25T10:08:29;4.55;;;2.42;;
64938;SDS011;51453;47.738;7.420;2023-02-25T10:13:53;6.57;;;3.03;;
64938;SDS011;51453;47.738;7.420;2023-02-25T10:24:55;6.28;;;1.90;;
64938;SDS011;51453;47.738;7.420;2023-02-25T10:27:29;5.78;;;2.20;;
64938;SDS011;51453;47.738;7.420;2023-02-25T10:30:06;7.00;;;2.30;;
64938;SDS011;51453;47.738;7.420;2023-02-25T10:32:41;7.32;;;1.92;;
64938;SDS011;51453;47.738;7.420;2023-02-25T10:37:46;4.55;;;1.88;;
64938;SDS011;51453;47.738;7.420;2023-02-25T10:40:14;3.30;;;1.77;;
64938;SDS011;51453;47.738;7.420;2023-02-25T10:42:45;6.18;;;1.90;;
64938;SDS011;51453;47.738;7.420;2023-02-25T10:45:13;3.08;;;1.27;;
64938;SDS011;51453;47.738;7.420;2023-02-25T10:47:46;6.30;;;1.75;;
64938;SDS011;51453;47.738;7.420;2023-02-25T10:52:54;4.10;;;1.60;;
64938;SDS011;51453;47.738;7.420;2023-02-25T10:55:24;2.45;;;1.50;;
64938;SDS011;51453;47.738;7.420;2023-02-25T10:58:00;3.90;;;1.35;;
64938;SDS011;51453;47.738;7.420;2023-02-25T11:00:29;6.65;;;1.50;;
64938;SDS011;51453;47.738;7.420;2023-02-25T11:03:02;4.30;;;1.60;;
64938;SDS011;51453;47.738;7.420;2023-02-25T11:05:36;4.53;;;1.50;;
64938;SDS011;51453;47.738;7.420;2023-02-25T11:08:05;5.47;;;1.50;;
64938;SDS011;51453;47.738;7.420;2023-02-25T11:13:39;5.82;;;2.22;;
64938;SDS011;51453;47.738;7.420;2023-02-25T11:16:05;4.07;;;1.50;;
64938;SDS011;51453;47.738;7.420;2023-02-25T11:18:33;3.53;;;1.50;;
64938;SDS011;51453;47.738;7.420;2023-02-25T11:21:25;6.82;;;1.50;;
64938;SDS011;51453;47.738;7.420;2023-02-25T11:24:01;3.35;;;1.98;;
64938;SDS011;51453;47.738;7.420;2023-02-25T11:26:34;4.15;;;1.70;;
64938;SDS011;51453;47.738;7.420;2023-02-25T11:29:19;8.77;;;1.80;;
64938;SDS011;51453;47.738;7.420;2023-02-25T11:31:57;3.13;;;1.60;;
64938;SDS011;51453;47.738;7.420;2023-02-25T11:34:31;7.07;;;1.85;;
64938;SDS011;51453;47.738;7.420;2023-02-25T11:37:23;4.72;;;1.65;;
64938;SDS011;51453;47.738;7.420;2023-02-25T11:45:33;8.13;;;1.42;;
64938;SDS011;51453;47.738;7.420;2023-02-25T11:48:12;5.72;;;1.60;;
64938;SDS011;51453;47.738;7.420;2023-02-25T11:51:02;3.85;;;1.60;;
64938;SDS011;51453;47.738;7.420;2023-02-25T12:13:36;4.50;;;1.80;;
64938;SDS011;51453;47.738;7.420;2023-02-25T12:27:23;5.38;;;1.35;;
64938;SDS011;51453;47.738;7.420;2023-02-25T12:33:21;5.80;;;1.20;;
64938;SDS011;51453;47.738;7.420;2023-02-25T12:44:32;5.63;;;1.40;;
64938;SDS011;51453;47.738;7.420;2023-02-25T13:08:46;3.65;;;1.02;;
64938;SDS011;51453;47.738;7.420;2023-02-25T13:14:14;4.93;;;1.20;;
64938;SDS011;51453;47.738;7.420;2023-02-25T13:39:11;3.15;;;1.15;;
64938;SDS011;51453;47.738;7.420;2023-02-25T13:41:40;4.78;;;1.15;;
64938;SDS011;51453;47.738;7.420;2023-02-25T13:44:16;3.65;;;1.00;;
64938;SDS011;51453;47.738;7.420;2023-02-25T14:03:29;4.20;;;1.50;;
64938;SDS011;51453;47.738;7.420;2023-02-25T14:34:25;5.68;;;1.20;;
64938;SDS011;51453;47.738;7.420;2023-02-25T14:39:31;4.72;;;1.55;;
64938;SDS011;51453;47.738;7.420;2023-02-25T14:47:29;2.35;;;1.00;;
64938;SDS011;51453;47.738;7.420;2023-02-25T14:52:46;4.13;;;0.90;;
64938;SDS011;51453;47.738;7.420;2023-02-25T14:58:15;4.03;;;1.10;;
64938;SDS011;51453;47.738;7.420;2023-02-25T15:01:02;3.33;;;1.30;;
64938;SDS011;51453;47.738;7.420;2023-02-25T15:03:46;6.72;;;1.60;;
64938;SDS011;51453;47.738;7.420;2023-02-25T15:11:49;8.27;;;2.17;;
64938;SDS011;51453;47.738;7.420;2023-02-25T15:14:54;6.10;;;1.80;;
64938;SDS011;51453;47.738;7.420;2023-02-25T15:25:34;6.90;;;1.55;;
64938;SDS011;51453;47.738;7.420;2023-02-25T15:38:45;5.25;;;1.90;;
64938;SDS011;51453;47.738;7.420;2023-02-25T15:43:51;6.18;;;1.55;;
64938;SDS011;51453;47.738;7.420;2023-02-25T15:54:07;4.80;;;1.35;;
64938;SDS011;51453;47.738;7.420;2023-02-25T15:56:44;9.98;;;1.67;;
64938;SDS011;51453;47.738;7.420;2023-02-25T16:07:30;6.03;;;1.20;;
64938;SDS011;51453;47.738;7.420;2023-02-25T16:12:42;5.57;;;0.93;;
64938;SDS011;51453;47.738;7.420;2023-02-25T16:17:55;6.13;;;1.33;;
64938;SDS011;51453;47.738;7.420;2023-02-25T16:20:28;3.88;;;1.20;;
64938;SDS011;51453;47.738;7.420;2023-02-25T16:22:58;4.30;;;1.23;;
64938;SDS011;51453;47.738;7.420;2023-02-25T16:25:30;6.63;;;1.42;;
64938;SDS011;51453;47.738;7.420;2023-02-25T16:31:34;5.53;;;1.00;;
64938;SDS011;51453;47.738;7.420;2023-02-25T16:34:38;4.55;;;1.08;;
64938;SDS011;51453;47.738;7.420;2023-02-25T16:39:46;4.38;;;0.90;;
64938;SDS011;51453;47.738;7.420;2023-02-25T16:42:12;7.20;;;1.10;;
64938;SDS011;51453;47.738;7.420;2023-02-25T16:44:41;2.92;;;0.90;;
64938;SDS011;51453;47.738;7.420;2023-02-25T16:47:22;6.90;;;1.20;;
64938;SDS011;51453;47.738;7.420;2023-02-25T16:52:18;5.30;;;0.88;;
64938;SDS011;51453;47.738;7.420;2023-02-25T16:55:01;4.15;;;1.10;;
64938;SDS011;51453;47.738;7.420;2023-02-25T16:57:34;3.90;;;1.00;;
64938;SDS011;51453;47.738;7.420;2023-02-25T17:02:47;4.75;;;1.25;;
64938;SDS011;51453;47.738;7.420;2023-02-25T17:05:34;4.95;;;0.85;;
64938;SDS011;51453;47.738;7.420;2023-02-25T17:08:03;2.97;;;0.98;;
64938;SDS011;51453;47.738;7.420;2023-02-25T17:10:45;6.40;;;1.52;;
64938;SDS011;51453;47.738;7.420;2023-02-25T17:13:22;4.00;;;1.00;;
64938;SDS011;51453;47.738;7.420;2023-02-25T17:15:54;3.85;;;1.10;;
64938;SDS011;51453;47.738;7.420;2023-02-25T17:18:27;3.78;;;0.95;;
64938;SDS011;51453;47.738;7.420;2023-02-25T17:26:24;6.90;;;1.55;;
64938;SDS011;51453;47.738;7.420;2023-02-25T17:28:52;5.50;;;1.35;;
64938;SDS011;51453;47.738;7.420;2023-02-25T17:31:24;5.47;;;1.02;;
64938;SDS011;51453;47.738;7.420;2023-02-25T17:33:53;5.53;;;1.00;;
64938;SDS011;51453;47.738;7.420;2023-02-25T17:36:24;6.47;;;1.20;;
64938;SDS011;51453;47.738;7.420;2023-02-25T17:38:56;3.95;;;1.00;;
64938;SDS011;51453;47.738;7.420;2023-02-25T17:41:25;3.53;;;1.23;;
64938;SDS011;51453;47.738;7.420;2023-02-25T17:43:51;4.43;;;1.20;;
64938;SDS011;51453;47.738;7.420;2023-02-25T17:49:03;3.78;;;1.10;;
64938;SDS011;51453;47.738;7.420;2023-02-25T17:51:43;3.72;;;1.30;;
64938;SDS011;51453;47.738;7.420;2023-02-25T17:54:14;3.42;;;1.08;;
64938;SDS011;51453;47.738;7.420;2023-02-25T17:56:42;4.55;;;1.60;;
64938;SDS011;51453;47.738;7.420;2023-02-25T18:01:44;5.57;;;1.65;;
64938;SDS011;51453;47.738;7.420;2023-02-25T18:04:33;2.53;;;1.17;;
64938;SDS011;51453;47.738;7.420;2023-02-25T18:09:53;3.92;;;1.30;;
64938;SDS011;51453;47.738;7.420;2023-02-25T18:12:27;5.18;;;1.25;;
64938;SDS011;51453;47.738;7.420;2023-02-25T18:15:02;6.15;;;1.30;;
64938;SDS011;51453;47.738;7.420;2023-02-25T18:17:38;6.28;;;1.38;;
64938;SDS011;51453;47.738;7.420;2023-02-25T18:20:06;5.90;;;1.40;;
64938;SDS011;51453;47.738;7.420;2023-02-25T18:22:51;6.68;;;1.63;;
64938;SDS011;51453;47.738;7.420;2023-02-25T18:27:52;3.03;;;1.35;;
64938;SDS011;51453;47.738;7.420;2023-02-25T18:30:20;7.32;;;1.75;;
64938;SDS011;51453;47.738;7.420;2023-02-25T18:32:48;6.53;;;2.35;;
64938;SDS011;51453;47.738;7.420;2023-02-25T18:35:14;6.85;;;4.07;;
64938;SDS011;51453;47.738;7.420;2023-02-25T18:37:40;6.35;;;2.50;;
64938;SDS011;51453;47.738;7.420;2023-02-25T18:40:10;9.10;;;3.28;;
64938;SDS011;51453;47.738;7.420;2023-02-25T18:42:41;10.45;;;3.15;;
64938;SDS011;51453;47.738;7.420;2023-02-25T18:45:12;9.57;;;3.78;;
64938;SDS011;51453;47.738;7.420;2023-02-25T18:47:42;25.98;;;9.80;;
64938;SDS011;51453;47.738;7.420;2023-02-25T18:50:08;20.40;;;8.57;;
64938;SDS011;51453;47.738;7.420;2023-02-25T18:52:35;19.10;;;6.65;;
64938;SDS011;51453;47.738;7.420;2023-02-25T18:55:02;11.45;;;4.47;;
64938;SDS011;51453;47.738;7.420;2023-02-25T18:57:28;12.13;;;6.38;;
64938;SDS011;51453;47.738;7.420;2023-02-25T18:59:54;10.75;;;5.82;;
64938;SDS011;51453;47.738;7.420;2023-02-25T19:02:22;10.38;;;4.38;;
64938;SDS011;51453;47.738;7.420;2023-02-25T19:04:54;12.18;;;4.85;;
64938;SDS011;51453;47.738;7.420;2023-02-25T19:07:22;16.77;;;6.05;;
64938;SDS011;51453;47.738;7.420;2023-02-25T19:09:49;17.58;;;7.32;;
64938;SDS011;51453;47.738;7.420;2023-02-25T19:12:15;21.10;;;8.55;;
64938;SDS011;51453;47.738;7.420;2023-02-25T19:14:41;24.25;;;8.90;;
64938;SDS011;51453;47.738;7.420;2023-02-25T19:17:13;18.23;;;8.65;;
64938;SDS011;51453;47.738;7.420;2023-02-25T19:19:40;18.33;;;7.93;;
64938;SDS011;51453;47.738;7.420;2023-02-25T19:22:10;18.25;;;7.05;;
64938;SDS011;51453;47.738;7.420;2023-02-25T19:24:37;14.93;;;7.18;;
64938;SDS011;51453;47.738;7.420;2023-02-25T19:27:03;15.45;;;6.68;;
64938;SDS011;51453;47.738;7.420;2023-02-25T19:29:29;19.45;;;6.47;;
64938;SDS011;51453;47.738;7.420;2023-02-25T19:31:55;11.98;;;5.30;;